MHTGTNCM

Guest
Details From MHTG - Tegucigalpa Toncontin Intl
To TNCM - St Maarten - Princess Juliana Intl
Flight Number -
Tags decoded
Created
Modified
Stats Distance 1,469 nm / 2,721 km
Max Altitude 0 ft / 0 m
Waypoints 8
Social Downloads 0
Likes 0
Share VATSIM

Download

Looking for another format? Having issues loading an existing format? Contact us
Advertisement - Login to hide

Notes

Requested: MHTG ANGEL R890 SWA STT B520 JUICE TNCM Unmatched points: R890

Route

MHTG ANGEL SWA STT B520 JUICE TNCM

ID Type Via Altitude Latitude Longitude Leg Dist Tot Dist Heading (true) Name
O MHTG APT - 0 ft / 0 m 14.06088˚ -87.21720˚ - 0 nm - Tegucigalpa Toncontin Intl
ANGEL FIX - 0 ft / 0 m 14.33417˚ -86.93750˚ 23 nm 23 nm 45° / 45° -
SWA NDB - 0 ft / 0 m 17.40000˚ -83.95000˚ 252 nm 275 nm 43° / 44° ISLAS DEL CISNE NDB
STT VOR - 0 ft / 0 m 18.35581˚ -65.02456˚ 1082 nm 1358 nm 84° / 90° ST THOMAS VOR-DME
PASIC FIX B520 (AWY-LO) 0 ft / 0 m 18.29481˚ -64.65002˚ 21 nm 1379 nm 100° / 100° -
LARPP FIX B520 (AWY-HI) 0 ft / 0 m 18.20527˚ -64.10881˚ 31 nm 1411 nm 100° / 100° -
JUICE FIX B520 (AWY-LO) 0 ft / 0 m 18.13094˚ -63.66667˚ 25 nm 1436 nm 100° / 100° -
O TNCM APT - 0 ft / 0 m 18.04089˚ -63.10897˚ 32 nm 1469 nm 100° / 100° St Maarten - Princess Juliana Intl

Altitude Profile

Advertisement - Login to hide

Weather


0- 5 10 15 20 25 30 35+ Temperature / ° C

Clouds and Precipitation
Forecast for 2017-12-18 12:00 UTC. Updated 2 hours ago

Ground ~20,000 ft ~40,000 ft Winds

MHTG

Details ICAO MHTG (TGU)
Name Tegucigalpa Toncontin Intl
Region Honduras
Timezone America/Tegucigalpa (UTC-6.0)
Stats Elevation 3,294 ft / 1,004 m (AMSL)
Location 14.060883° -87.217197°
Runways 1
Magnetic Variation 0.661° W

METAR

MHTG 181300Z 07004KT 6000 3000N VCSH FEW008 BKN022 18/19 Q1020 A3012 NOSIG

Decode

TAF

Not found

Departure Runways

ID Width Length Bearing (true) Bearing (mag) Surface Threshold Offset Overrun Length
02 148 ft / 45 m 6,140 ft / 1,872 m 18.87° 19.53° Asphalt 670 ft / 204 m 100 ft / 30 m
20 148 ft / 45 m 6,140 ft / 1,872 m 198.87° 199.53° Asphalt 0 ft / 0 m 200 ft / 61 m

TNCM

Details ICAO TNCM (SXM)
Name St Maarten - Princess Juliana Intl
Region Caribbean Netherlands, Aruba, Curaçao, Sint Maarten
Timezone Unknown (UTC+0.0)
Stats Elevation 12 ft / 4 m (AMSL)
Location 18.040889° -63.108974°
Runways 1
Magnetic Variation 14.325° W

METAR

TNCM 181300Z 07011KT 9999 SCT019 27/22 Q1018 A3007 NOSIG

Decode

TAF

TAF TNCM 181137Z 1812/1912 05012KT P6SM -SHRA FEW016 SCT040 FM181430 07017KT P6SM VCSH SCT020 FM182300 07010KT P6SM SCT018

Decode

Destination Runways

ID Width Length Bearing (true) Bearing (mag) Surface Threshold Offset Overrun Length
10 148 ft / 45 m 7,464 ft / 2,275 m 81.43° 95.76° Asphalt 0 ft / 0 m 151 ft / 46 m
28 148 ft / 45 m 7,464 ft / 2,275 m 261.44° 275.77° Asphalt 397 ft / 121 m 0 ft / 0 m

Popular Alternatives